Geelong, Australia
Current Conditions -  °F | °C
As of 5:00 PM on Wednesday 22 Oct 2014 (Local Time) from YMAV Reporting Station
Clear Clear  
Wind Chill: 90°   Ceiling: Unl
Heat Index: 90°   Visibility: 6mi
Dew Point: 52°   Wind: 3mph
Humidity: 27%   Direction: 360°N
Pressure: 29.91"   Gusts: NA
Location:  38.15°S, 144.36°E
Report Text: YMAV 220600Z AUTO 36003KT 9999 // NCD 32/11 Q1013
Loading
Personal Weather Stations






























Interactive Weather Map
Tropical Storm Tracking
New forecast layout! Learn more

10-Day Weather Forecast

Advertisements
Track Severe Weather on mobile